createdAt,value
2022-08-29T00:01:10.394Z,100506.13
2022-08-29T00:03:37.507Z,100506.03
2022-08-29T00:06:04.845Z,100504.75
2022-08-29T00:08:31.910Z,100501.31
2022-08-29T00:10:58.874Z,100501.94
2022-08-29T00:13:26.046Z,100493.50
2022-08-29T00:15:53.094Z,100498.19
2022-08-29T00:18:21.151Z,100497.22
2022-08-29T00:20:48.689Z,100496.72
2022-08-29T00:23:16.137Z,100503.47
2022-08-29T00:25:43.198Z,100509.56
2022-08-29T00:28:10.335Z,100508.41
2022-08-29T00:30:38.171Z,100516.06
2022-08-29T00:33:05.230Z,100511.13
2022-08-29T00:35:37.861Z,100513.88
2022-08-29T00:38:08.334Z,100515.06
2022-08-29T00:40:58.121Z,100517.06
2022-08-29T00:43:36.276Z,100518.44
2022-08-29T00:46:06.212Z,100512.56
2022-08-29T00:48:36.482Z,100514.88
2022-08-29T00:51:07.906Z,100511.69
2022-08-29T00:53:39.824Z,100509.09
2022-08-29T00:56:08.695Z,100513.88
2022-08-29T00:58:46.702Z,100512.06
2022-08-29T01:01:14.384Z,100511.66
2022-08-29T01:03:43.075Z,100511.09
2022-08-29T01:06:11.637Z,100509.94
2022-08-29T01:08:38.561Z,100510.28
2022-08-29T01:11:25.039Z,100504.78
2022-08-29T01:13:55.092Z,100510.09
2022-08-29T01:16:24.383Z,100504.47
2022-08-29T01:18:58.288Z,100504.00
2022-08-29T01:21:57.309Z,100499.41
2022-08-29T01:24:30.262Z,100500.28
2022-08-29T01:26:57.499Z,100499.97
2022-08-29T01:29:24.663Z,100494.03
2022-08-29T01:31:57.137Z,100494.19
2022-08-29T01:34:26.475Z,100488.47
2022-08-29T01:36:57.528Z,100493.88
2022-08-29T01:39:27.692Z,100490.78
2022-08-29T01:41:57.124Z,100492.03
2022-08-29T01:44:26.407Z,100494.03
2022-08-29T01:47:02.206Z,100496.38
2022-08-29T01:49:31.664Z,100503.66
2022-08-29T01:51:58.558Z,100481.53
2022-08-29T01:54:25.508Z,100483.94
2022-08-29T01:56:53.827Z,100480.94
2022-08-29T01:59:25.549Z,100480.41
2022-08-29T02:01:58.520Z,100485.97
2022-08-29T02:04:25.617Z,100489.19
2022-08-29T02:06:52.795Z,100480.75
2022-08-29T02:09:19.878Z,100478.75
2022-08-29T02:11:48.463Z,100477.09
2022-08-29T02:14:19.247Z,100477.72
2022-08-29T02:16:47.939Z,100480.34
2022-08-29T02:19:16.181Z,100488.28
2022-08-29T02:21:44.533Z,100480.16
2022-08-29T02:24:25.086Z,100487.25
2022-08-29T02:26:55.407Z,100480.00
2022-08-29T02:29:23.258Z,100480.84
2022-08-29T02:31:50.257Z,100482.75
2022-08-29T02:34:18.166Z,100479.31
2022-08-29T02:36:45.085Z,100478.00
2022-08-29T02:39:16.138Z,100480.63
2022-08-29T02:41:44.441Z,100478.63
2022-08-29T02:44:11.936Z,100482.38
2022-08-29T02:46:38.957Z,100484.59
2022-08-29T02:49:06.042Z,100488.69
2022-08-29T02:51:33.931Z,100486.50
2022-08-29T02:54:01.976Z,100495.00
2022-08-29T02:56:30.070Z,100495.53
2022-08-29T02:58:57.830Z,100490.53
2022-08-29T03:01:26.382Z,100492.38
2022-08-29T03:03:53.913Z,100496.06
2022-08-29T03:06:21.211Z,100496.09
2022-08-29T03:08:48.152Z,100494.28
2022-08-29T03:11:17.434Z,100497.69
2022-08-29T03:13:45.377Z,100506.91
2022-08-29T03:16:12.991Z,100507.75
2022-08-29T03:18:40.080Z,100503.50
2022-08-29T03:21:16.696Z,100513.25
2022-08-29T03:23:43.883Z,100513.97
2022-08-29T03:26:11.020Z,100508.56
2022-08-29T03:28:37.940Z,100508.94
2022-08-29T03:31:05.251Z,100514.50
2022-08-29T03:33:32.244Z,100510.72
2022-08-29T03:35:59.223Z,100516.13
2022-08-29T03:38:26.189Z,100517.44
2022-08-29T03:40:53.594Z,100520.09
2022-08-29T03:43:25.133Z,100518.81
2022-08-29T03:45:52.952Z,100516.03
2022-08-29T03:48:19.887Z,100522.63
2022-08-29T03:50:46.942Z,100524.56
2022-08-29T03:53:13.879Z,100517.63
2022-08-29T03:55:41.574Z,100529.03
2022-08-29T03:58:08.669Z,100533.47
2022-08-29T04:00:35.818Z,100526.66
2022-08-29T04:03:02.909Z,100525.38
2022-08-29T04:05:30.133Z,100527.56
2022-08-29T04:07:59.320Z,100531.59
2022-08-29T04:10:32.494Z,100535.13
2022-08-29T04:13:00.752Z,100536.75
2022-08-29T04:15:29.216Z,100535.00
2022-08-29T04:17:58.551Z,100547.41
2022-08-29T04:20:28.515Z,100542.22
2022-08-29T04:22:57.118Z,100547.47
2022-08-29T04:25:26.175Z,100548.94
2022-08-29T04:27:54.606Z,100538.16
2022-08-29T04:30:24.309Z,100551.38
2022-08-29T04:32:51.885Z,100547.72
2022-08-29T04:35:18.900Z,100548.78
2022-08-29T04:37:45.918Z,100541.44
2022-08-29T04:40:16.035Z,100551.75
2022-08-29T04:42:44.228Z,100549.69
2022-08-29T04:45:13.701Z,100550.19
2022-08-29T04:47:42.161Z,100544.13
2022-08-29T04:50:12.935Z,100537.56
2022-08-29T04:52:40.364Z,100541.69
2022-08-29T04:55:09.002Z,100543.31
2022-08-29T04:57:38.306Z,100544.75
2022-08-29T05:00:11.914Z,100551.97
2022-08-29T05:02:40.210Z,100546.34
2022-08-29T05:05:08.841Z,100553.84
2022-08-29T05:07:38.314Z,100554.94
2022-08-29T05:10:23.735Z,100553.72
2022-08-29T05:12:50.748Z,100553.38
2022-08-29T05:15:18.738Z,100549.81
2022-08-29T05:17:45.729Z,100554.19
2022-08-29T05:20:13.120Z,100550.66
2022-08-29T05:22:42.383Z,100556.47
2022-08-29T05:25:17.386Z,100549.03
2022-08-29T05:27:45.925Z,100559.47
2022-08-29T05:30:12.947Z,100560.66
2022-08-29T05:32:39.857Z,100562.19
2022-08-29T05:35:07.444Z,100559.44
2022-08-29T05:37:34.927Z,100562.78
2022-08-29T05:40:02.270Z,100563.53
2022-08-29T05:42:29.512Z,100551.41
2022-08-29T05:44:56.919Z,100553.91
2022-08-29T05:47:23.870Z,100558.03
2022-08-29T05:49:50.943Z,100559.00
2022-08-29T05:52:19.976Z,100559.22
2022-08-29T05:54:47.016Z,100562.59
2022-08-29T05:57:19.192Z,100557.03
2022-08-29T05:59:52.455Z,100555.56
2022-08-29T06:02:21.370Z,100557.91
2022-08-29T06:04:48.706Z,100566.53
2022-08-29T06:07:15.945Z,100567.63
2022-08-29T06:09:44.731Z,100571.22
2022-08-29T06:12:14.399Z,100564.41
2022-08-29T06:14:42.048Z,100562.34
2022-08-29T06:17:17.763Z,100563.25
2022-08-29T06:19:44.737Z,100561.81
2022-08-29T06:22:11.788Z,100557.47
2022-08-29T06:24:39.875Z,100571.69
2022-08-29T06:27:11.333Z,100567.34
2022-08-29T06:29:43.570Z,100568.75
2022-08-29T06:32:12.161Z,100565.44
2022-08-29T06:34:39.165Z,100561.81
2022-08-29T06:37:06.205Z,100562.97
2022-08-29T06:39:33.174Z,100560.25
2022-08-29T06:42:00.152Z,100560.47
2022-08-29T06:44:30.653Z,100549.75
2022-08-29T06:46:58.830Z,100563.31
2022-08-29T06:49:26.157Z,100559.38
2022-08-29T06:51:57.587Z,100559.13
2022-08-29T06:54:28.200Z,100559.00
2022-08-29T06:56:56.602Z,100563.84
2022-08-29T06:59:24.056Z,100553.53
2022-08-29T07:01:51.121Z,100555.38
2022-08-29T07:04:20.559Z,100556.69
2022-08-29T07:06:48.981Z,100557.31
2022-08-29T07:09:15.964Z,100553.94
2022-08-29T07:11:43.503Z,100558.28
2022-08-29T07:14:11.245Z,100563.13
2022-08-29T07:16:39.064Z,100563.81
2022-08-29T07:19:07.646Z,100559.81
2022-08-29T07:21:34.672Z,100565.31
2022-08-29T07:24:02.293Z,100561.75
2022-08-29T07:26:33.847Z,100565.81
2022-08-29T07:29:03.976Z,100570.28
2022-08-29T07:31:31.665Z,100574.75
2022-08-29T07:34:02.848Z,100572.00
2022-08-29T07:36:34.642Z,100567.75
2022-08-29T07:39:04.438Z,100573.19
2022-08-29T07:41:31.414Z,100570.00
2022-08-29T07:43:58.361Z,100570.19
2022-08-29T07:46:27.101Z,100572.41
2022-08-29T07:48:54.451Z,100574.56
2022-08-29T07:51:23.351Z,100583.75
2022-08-29T07:53:51.442Z,100581.09
2022-08-29T07:56:23.062Z,100581.88
2022-08-29T07:58:52.155Z,100586.06
2022-08-29T08:01:21.243Z,100573.41
2022-08-29T08:03:50.869Z,100582.56
2022-08-29T08:06:20.946Z,100574.09
2022-08-29T08:08:48.669Z,100582.81
2022-08-29T08:11:16.711Z,100585.53
2022-08-29T08:13:44.600Z,100586.97
2022-08-29T08:16:17.220Z,100583.66
2022-08-29T08:18:45.238Z,100579.75
2022-08-29T08:21:13.474Z,100588.47
2022-08-29T08:23:41.490Z,100586.44
2022-08-29T08:26:10.211Z,100585.59
2022-08-29T08:28:37.910Z,100579.91
2022-08-29T08:31:07.948Z,100590.25
2022-08-29T08:33:38.931Z,100581.63
2022-08-29T08:36:22.539Z,100583.34
2022-08-29T08:38:50.878Z,100577.34
2022-08-29T08:41:34.749Z,100575.63
2022-08-29T08:44:29.045Z,100582.28
2022-08-29T08:47:01.689Z,100582.38
2022-08-29T08:50:10.037Z,100574.69
2022-08-29T08:53:02.793Z,100578.47
2022-08-29T08:55:46.961Z,100588.38
2022-08-29T08:58:36.980Z,100575.59
2022-08-29T09:01:18.975Z,100573.13
2022-08-29T09:04:20.771Z,100575.75
2022-08-29T09:07:06.254Z,100568.66
2022-08-29T09:10:05.288Z,100569.63
2022-08-29T09:12:35.278Z,100567.75
2022-08-29T09:15:16.037Z,100575.72
2022-08-29T09:17:57.985Z,100572.47
2022-08-29T09:20:28.995Z,100567.00
2022-08-29T09:23:01.277Z,100566.75
2022-08-29T09:25:30.297Z,100567.06
2022-08-29T09:27:58.563Z,100569.44
2022-08-29T09:30:28.879Z,100563.19
2022-08-29T09:33:04.865Z,100567.78
2022-08-29T09:35:53.005Z,100566.47
2022-08-29T09:38:28.297Z,100569.97
2022-08-29T09:40:55.622Z,100563.84
2022-08-29T09:43:44.369Z,100569.53
2022-08-29T09:46:11.506Z,100568.75
2022-08-29T09:49:00.193Z,100568.59
2022-08-29T09:51:48.473Z,100577.81
2022-08-29T09:54:28.504Z,100577.84
2022-08-29T09:57:02.670Z,100580.56
2022-08-29T09:59:35.925Z,100579.25
2022-08-29T10:02:24.649Z,100580.97
2022-08-29T10:05:02.809Z,100581.19
2022-08-29T10:07:37.691Z,100579.41
2022-08-29T10:10:20.069Z,100572.19
2022-08-29T10:13:12.936Z,100574.78
2022-08-29T10:15:51.373Z,100574.88
2022-08-29T10:18:46.247Z,100575.19
2022-08-29T10:21:29.339Z,100586.88
2022-08-29T10:24:24.402Z,100582.31
2022-08-29T10:26:56.821Z,100580.13
2022-08-29T10:30:07.623Z,100589.69
2022-08-29T10:32:58.974Z,100581.34
2022-08-29T10:35:35.374Z,100574.91
2022-08-29T10:38:24.417Z,100584.09
2022-08-29T10:41:02.030Z,100583.81
2022-08-29T10:43:32.018Z,100582.31
2022-08-29T10:46:10.893Z,100569.25
2022-08-29T10:48:52.789Z,100580.78
2022-08-29T10:51:51.827Z,100583.19
2022-08-29T10:54:48.689Z,100574.50
2022-08-29T10:57:44.384Z,100577.53
2022-08-29T11:00:24.692Z,100579.53
2022-08-29T11:03:10.323Z,100575.78
2022-08-29T11:05:49.442Z,100580.41
2022-08-29T11:08:35.138Z,100575.06
2022-08-29T11:11:02.124Z,100577.13
2022-08-29T11:13:36.051Z,100563.94
2022-08-29T11:16:05.800Z,100569.41
2022-08-29T11:18:40.918Z,100557.88
2022-08-29T11:21:27.402Z,100560.75
2022-08-29T11:23:56.406Z,100558.47
2022-08-29T11:26:23.287Z,100551.00
2022-08-29T11:29:28.318Z,100548.56
2022-08-29T11:32:27.232Z,100543.28
2022-08-29T11:35:15.066Z,100550.06
2022-08-29T11:38:03.845Z,100529.06
2022-08-29T11:43:43.224Z,100541.44
2022-08-29T11:46:14.023Z,100540.19
2022-08-29T11:48:46.231Z,100539.72
2022-08-29T11:51:42.639Z,100548.66
2022-08-29T11:54:25.188Z,100547.13
2022-08-29T11:57:01.663Z,100539.44
2022-08-29T11:59:50.077Z,100532.69
2022-08-29T12:02:31.926Z,100537.06
2022-08-29T12:05:28.111Z,100540.31
2022-08-29T12:08:35.550Z,100540.25
2022-08-29T12:11:00.643Z,100532.63
2022-08-29T12:13:48.536Z,100531.91
2022-08-29T12:16:27.121Z,100537.53
2022-08-29T12:18:56.645Z,100537.81
2022-08-29T12:21:39.533Z,100526.13
2022-08-29T12:24:28.120Z,100530.59
2022-08-29T12:26:55.351Z,100532.69
2022-08-29T12:29:41.052Z,100526.47
2022-08-29T12:32:23.841Z,100536.00
2022-08-29T12:35:09.980Z,100517.75
2022-08-29T12:37:46.415Z,100537.84
2022-08-29T12:40:36.859Z,100534.28
2022-08-29T12:43:25.552Z,100530.06
2022-08-29T12:45:53.854Z,100524.63
2022-08-29T12:48:25.967Z,100520.63
2022-08-29T12:50:54.077Z,100521.88
2022-08-29T12:53:33.416Z,100526.44
2022-08-29T12:56:02.515Z,100515.28
2022-08-29T12:58:56.772Z,100519.06
2022-08-29T13:01:39.076Z,100525.97
2022-08-29T13:04:15.515Z,100530.47
2022-08-29T13:06:59.146Z,100520.56
2022-08-29T13:09:27.396Z,100513.59
2022-08-29T13:12:26.843Z,100514.06
2022-08-29T13:15:00.674Z,100532.16
2022-08-29T13:17:30.699Z,100524.19
2022-08-29T13:20:38.858Z,100521.00
2022-08-29T13:23:11.976Z,100518.72
2022-08-29T13:26:07.050Z,100519.69
2022-08-29T13:28:54.564Z,100519.06
2022-08-29T13:31:30.501Z,100512.28
2022-08-29T13:33:57.414Z,100514.69
2022-08-29T13:36:27.159Z,100504.38
2022-08-29T13:39:27.197Z,100501.34
2022-08-29T13:42:03.006Z,100500.59
2022-08-29T13:44:36.308Z,100499.03
2022-08-29T13:47:14.038Z,100496.47
2022-08-29T13:49:41.595Z,100504.19
2022-08-29T13:52:10.572Z,100499.97
2022-08-29T13:54:43.159Z,100499.69
2022-08-29T13:57:17.575Z,100498.78
2022-08-29T13:59:44.980Z,100492.88
2022-08-29T14:02:14.921Z,100496.53
2022-08-29T14:04:43.337Z,100492.59
2022-08-29T14:07:17.476Z,100490.78
2022-08-29T14:09:46.183Z,100488.47
2022-08-29T14:12:14.900Z,100490.19
2022-08-29T14:14:45.604Z,100485.72
2022-08-29T14:17:18.498Z,100480.28
2022-08-29T14:19:46.989Z,100481.28
2022-08-29T14:22:14.653Z,100480.22
2022-08-29T14:24:42.375Z,100471.88
2022-08-29T14:27:09.691Z,100479.31
2022-08-29T14:29:37.089Z,100478.06
2022-08-29T14:32:04.912Z,100482.78
2022-08-29T14:34:33.104Z,100480.75
2022-08-29T14:37:01.235Z,100479.63
2022-08-29T14:39:28.898Z,100476.28
2022-08-29T14:41:56.019Z,100482.47
2022-08-29T14:44:23.621Z,100487.03
2022-08-29T14:46:51.380Z,100475.13
2022-08-29T14:49:19.201Z,100475.41
2022-08-29T14:51:46.839Z,100482.78
2022-08-29T14:54:13.939Z,100472.75
2022-08-29T14:56:48.607Z,100471.13
2022-08-29T14:59:17.350Z,100470.66
2022-08-29T15:01:48.675Z,100468.84
2022-08-29T15:04:34.820Z,100467.19
2022-08-29T15:07:13.793Z,100476.56
2022-08-29T15:09:43.810Z,100473.41
2022-08-29T15:12:16.971Z,100474.78
2022-08-29T15:14:45.091Z,100474.66
2022-08-29T15:17:13.166Z,100467.22
2022-08-29T15:22:27.916Z,100469.13
2022-08-29T15:24:54.902Z,100466.25
2022-08-29T15:27:27.384Z,100465.13
2022-08-29T15:29:55.491Z,100469.34
2022-08-29T15:32:22.745Z,100463.06
2022-08-29T15:34:49.867Z,100467.53
2022-08-29T15:37:17.105Z,100462.50
2022-08-29T15:39:44.099Z,100465.69
2022-08-29T15:42:12.119Z,100467.69
2022-08-29T15:44:44.665Z,100461.94
2022-08-29T15:47:11.716Z,100471.56
2022-08-29T15:49:39.674Z,100478.91
2022-08-29T15:52:06.910Z,100471.97
2022-08-29T15:54:33.872Z,100469.16
2022-08-29T15:57:00.750Z,100468.38
2022-08-29T15:59:54.192Z,100470.00
2022-08-29T16:02:15.458Z,100471.78
2022-08-29T16:04:47.864Z,100460.91
2022-08-29T16:07:15.857Z,100475.53
2022-08-29T16:09:43.498Z,100467.47
2022-08-29T16:12:11.845Z,100464.09
2022-08-29T16:14:58.458Z,100477.78
2022-08-29T16:17:29.846Z,100471.38
2022-08-29T16:19:58.198Z,100484.06
2022-08-29T16:22:27.861Z,100491.34
2022-08-29T16:24:55.330Z,100488.84
2022-08-29T16:27:24.261Z,100494.50
2022-08-29T16:29:52.996Z,100500.81
2022-08-29T16:32:20.299Z,100501.66
2022-08-29T16:34:47.343Z,100500.72
2022-08-29T16:37:14.687Z,100497.47
2022-08-29T16:39:41.677Z,100490.84
2022-08-29T16:42:09.413Z,100491.28
2022-08-29T16:44:36.509Z,100486.81
2022-08-29T16:47:03.491Z,100485.53
2022-08-29T16:49:30.925Z,100495.06
2022-08-29T16:51:57.819Z,100487.97
2022-08-29T16:54:24.710Z,100488.34
2022-08-29T16:56:52.469Z,100493.72
2022-08-29T16:59:19.408Z,100497.00
2022-08-29T17:01:49.151Z,100499.06
2022-08-29T17:04:22.091Z,100494.53
2022-08-29T17:06:49.449Z,100497.84
2022-08-29T17:09:18.388Z,100500.91
2022-08-29T17:11:46.028Z,100507.47
2022-08-29T17:14:14.126Z,100510.63
2022-08-29T17:16:42.698Z,100507.03
2022-08-29T17:19:09.821Z,100513.03
2022-08-29T17:21:37.731Z,100517.34
2022-08-29T17:24:08.913Z,100520.56
2022-08-29T17:26:40.819Z,100524.97
2022-08-29T17:29:10.189Z,100521.34
2022-08-29T17:31:38.911Z,100524.16
2022-08-29T17:34:07.566Z,100526.84
2022-08-29T17:36:36.744Z,100535.22
2022-08-29T17:39:05.758Z,100537.28
2022-08-29T17:41:34.878Z,100543.00
2022-08-29T17:44:02.315Z,100544.09
2022-08-29T17:46:30.086Z,100544.97
2022-08-29T17:48:57.174Z,100551.81
2022-08-29T17:51:24.773Z,100551.56
2022-08-29T17:53:52.428Z,100559.91
2022-08-29T17:56:26.866Z,100556.69
2022-08-29T17:58:53.931Z,100565.78
2022-08-29T18:01:21.011Z,100568.00
2022-08-29T18:03:47.971Z,100565.78
2022-08-29T18:06:15.416Z,100575.34
2022-08-29T18:08:47.754Z,100577.44
2022-08-29T18:11:17.048Z,100572.50
2022-08-29T18:13:44.486Z,100577.84
2022-08-29T18:16:12.267Z,100573.69
2022-08-29T18:18:39.595Z,100574.81
2022-08-29T18:21:07.374Z,100576.28
2022-08-29T18:23:35.441Z,100578.31
2022-08-29T18:26:03.520Z,100575.03
2022-08-29T18:28:30.966Z,100570.09
2022-08-29T18:30:58.860Z,100566.63
2022-08-29T18:33:38.774Z,100575.59
2022-08-29T18:36:11.555Z,100572.91
2022-08-29T18:38:38.497Z,100576.25
2022-08-29T18:41:06.483Z,100578.41
2022-08-29T18:43:34.879Z,100573.44
2022-08-29T18:46:06.230Z,100579.09
2022-08-29T18:48:33.329Z,100577.06
2022-08-29T18:51:00.295Z,100578.31
2022-08-29T18:53:31.633Z,100571.13
2022-08-29T18:56:00.733Z,100573.19
2022-08-29T18:58:30.654Z,100577.03
2022-08-29T19:00:59.459Z,100575.81
2022-08-29T19:03:26.688Z,100569.06
2022-08-29T19:05:54.102Z,100570.34
2022-08-29T19:08:24.729Z,100563.88
2022-08-29T19:10:55.255Z,100564.28
2022-08-29T19:13:25.120Z,100564.63
2022-08-29T19:15:56.507Z,100566.75
2022-08-29T19:18:23.713Z,100564.69
2022-08-29T19:21:02.817Z,100556.63
2022-08-29T19:23:31.288Z,100559.50
2022-08-29T19:25:58.527Z,100568.06
2022-08-29T19:28:27.632Z,100561.91
2022-08-29T19:30:55.529Z,100563.69
2022-08-29T19:33:22.943Z,100570.38
2022-08-29T19:35:51.523Z,100561.53
2022-08-29T19:38:20.401Z,100564.38
2022-08-29T19:40:48.762Z,100562.66
2022-08-29T19:43:16.130Z,100558.75
2022-08-29T19:45:44.364Z,100554.78
2022-08-29T19:48:15.103Z,100563.09
2022-08-29T19:50:43.090Z,100560.81
2022-08-29T19:53:21.505Z,100555.19
2022-08-29T19:55:54.617Z,100560.75
2022-08-29T19:58:31.068Z,100562.00
2022-08-29T20:01:00.669Z,100559.75
2022-08-29T20:03:28.966Z,100564.28
2022-08-29T20:05:56.523Z,100558.25
2022-08-29T20:08:23.491Z,100557.41
2022-08-29T20:10:51.350Z,100560.84
2022-08-29T20:13:19.783Z,100558.41
2022-08-29T20:15:47.329Z,100556.88
2022-08-29T20:18:14.943Z,100558.31
2022-08-29T20:20:41.921Z,100560.25
2022-08-29T20:23:09.214Z,100559.59
2022-08-29T20:25:36.441Z,100563.38
2022-08-29T20:28:05.999Z,100563.00
2022-08-29T20:30:34.722Z,100559.09
2022-08-29T20:33:02.157Z,100551.38
2022-08-29T20:35:47.536Z,100554.19
2022-08-29T20:38:15.043Z,100557.00
2022-08-29T20:40:46.889Z,100557.25
2022-08-29T20:43:14.945Z,100553.06
2022-08-29T20:45:42.699Z,100558.56
2022-08-29T20:48:10.554Z,100559.41
2022-08-29T20:50:37.633Z,100558.34
2022-08-29T20:53:05.909Z,100553.47
2022-08-29T20:55:32.978Z,100558.63
2022-08-29T20:58:00.180Z,100552.59
2022-08-29T21:00:27.953Z,100551.31
2022-08-29T21:03:13.553Z,100558.63
2022-08-29T21:05:43.507Z,100554.31
2022-08-29T21:08:14.994Z,100557.66
2022-08-29T21:10:43.001Z,100544.78
2022-08-29T21:13:10.763Z,100552.41
2022-08-29T21:15:39.978Z,100557.97
2022-08-29T21:18:07.983Z,100551.88
2022-08-29T21:20:44.994Z,100555.31
2022-08-29T21:23:23.251Z,100553.28
2022-08-29T21:25:56.014Z,100553.22
2022-08-29T21:28:24.918Z,100550.53
2022-08-29T21:30:52.593Z,100556.88
2022-08-29T21:33:20.792Z,100555.09
2022-08-29T21:35:50.205Z,100560.50
2022-08-29T21:38:17.832Z,100563.97
2022-08-29T21:40:51.018Z,100564.53
2022-08-29T21:43:19.848Z,100565.38
2022-08-29T21:45:47.724Z,100573.53
2022-08-29T21:48:14.751Z,100567.22
2022-08-29T21:50:42.002Z,100567.69
2022-08-29T21:53:14.971Z,100566.66
2022-08-29T21:55:42.418Z,100563.25
2022-08-29T21:58:09.499Z,100555.91
2022-08-29T22:00:37.990Z,100568.38
2022-08-29T22:03:07.103Z,100566.66
2022-08-29T22:05:34.059Z,100560.31
2022-08-29T22:08:03.297Z,100567.97
2022-08-29T22:10:33.725Z,100562.13
2022-08-29T22:13:01.932Z,100560.75
2022-08-29T22:15:47.738Z,100562.19
2022-08-29T22:18:15.312Z,100560.09
2022-08-29T22:20:47.655Z,100562.78
2022-08-29T22:23:20.547Z,100556.06
2022-08-29T22:25:47.641Z,100549.44
2022-08-29T22:28:14.621Z,100548.81
2022-08-29T22:30:41.680Z,100555.19
2022-08-29T22:33:09.038Z,100558.50
2022-08-29T22:35:43.250Z,100556.66
2022-08-29T22:38:10.475Z,100555.88
2022-08-29T22:40:37.540Z,100551.88
2022-08-29T22:43:04.715Z,100556.22
2022-08-29T22:45:32.409Z,100559.78
2022-08-29T22:47:59.446Z,100561.28
2022-08-29T22:50:26.492Z,100559.44
2022-08-29T22:52:58.091Z,100557.38
2022-08-29T22:57:51.487Z,100554.44
2022-08-29T23:00:22.663Z,100551.38
2022-08-29T23:02:50.880Z,100554.44
2022-08-29T23:05:20.043Z,100555.59
2022-08-29T23:07:47.005Z,100556.47
2022-08-29T23:10:15.134Z,100555.69
2022-08-29T23:12:42.236Z,100556.03
2022-08-29T23:15:13.606Z,100553.97
2022-08-29T23:17:41.238Z,100555.91
2022-08-29T23:20:11.674Z,100564.34
2022-08-29T23:22:42.830Z,100555.16
2022-08-29T23:25:12.261Z,100570.38
2022-08-29T23:27:40.018Z,100563.47
2022-08-29T23:30:12.088Z,100557.81
2022-08-29T23:32:39.205Z,100566.00
2022-08-29T23:35:07.727Z,100566.47
2022-08-29T23:37:34.913Z,100569.03
2022-08-29T23:40:02.462Z,100563.84
2022-08-29T23:42:29.548Z,100560.41
2022-08-29T23:44:57.601Z,100558.44
2022-08-29T23:47:24.551Z,100549.38
2022-08-29T23:49:51.582Z,100546.06
2022-08-29T23:52:18.789Z,100545.88
2022-08-29T23:54:45.781Z,100543.13
2022-08-29T23:57:12.895Z,100550.25
2022-08-29T23:59:58.537Z,100541.41
